Wetterstation Vordersexau
Wetterdaten: Dezember 2013
Datum Temp. A. Feuchte A. Luftdruck Regen Wind Richtung Taupunkt Windchill Windben
01.12.2013 2,4 C 77 % 1025,3 hPa 0,0 l/m 0,5 km/h O -1,3 C 2,3 C 0,3 km/h
02.12.2013 2,7 C 77 % 1025,7 hPa 0,5 l/m 0,7 km/h O-SO -1,3 C 2,6 C 0,4 km/h
03.12.2013 0,1 C 81 % 1026,7 hPa 0,0 l/m 0,2 km/h SO -2,8 C 0,1 C 0,1 km/h
04.12.2013 -0,0 C 83 % 1026,4 hPa 0,0 l/m 0,1 km/h SO -2,7 C -0,0 C 0,0 km/h
05.12.2013 4,5 C 82 % 1024,2 hPa 0,0 l/m 12,9 km/h SO 1,7 C 0,0 C 7,2 km/h
06.12.2013 3,8 C 76 % 1022,8 hPa 2,1 l/m 8,8 km/h W-SW -0,1 C 0,7 C 4,9 km/h
07.12.2013 3,5 C 77 % 1027,0 hPa 0,0 l/m 1,0 km/h W-SW -0,2 C 3,3 C 0,6 km/h
08.12.2013 2,3 C 82 % 1027,3 hPa 0,0 l/m 0,0 km/h O-SO -0,6 C 2,3 C 0,0 km/h
09.12.2013 2,1 C 80 % 1029,9 hPa 0,0 l/m 0,2 km/h N-NO -1,2 C 2,1 C 0,1 km/h
10.12.2013 1,9 C 79 % 1031,8 hPa 0,5 l/m 0,0 km/h NO -1,5 C 1,9 C 0,0 km/h
11.12.2013 0,7 C 82 % 1031,4 hPa 0,0 l/m 0,1 km/h NO -2,1 C 0,7 C 0,0 km/h
12.12.2013 -1,2 C 83 % 1028,9 hPa 0,0 l/m 0,0 km/h W-NW -3,7 C -1,2 C 0,0 km/h
13.12.2013 -1,7 C 81 % 1024,4 hPa 0,0 l/m 0,0 km/h W-NW -4,4 C -1,7 C 0,0 km/h
14.12.2013 0,8 C 79 % 1028,0 hPa 4,7 l/m 0,8 km/h W-NW -2,4 C 0,5 C 0,4 km/h
15.12.2013 1,6 C 80 % 1029,8 hPa 0,0 l/m 1,3 km/h O-SO -1,6 C 1,1 C 0,7 km/h
16.12.2013 2,3 C 80 % 1027,3 hPa 0,5 l/m 0,0 km/h NO -0,9 C 2,3 C 0,0 km/h
17.12.2013 4,1 C 74 % 1024,5 hPa 0,0 l/m 1,1 km/h N-NO -0,7 C 3,8 C 0,6 km/h
18.12.2013 4,4 C 79 % 1020,0 hPa 0,0 l/m 0,3 km/h NO 1,1 C 4,4 C 0,2 km/h
19.12.2013 6,9 C 83 % 1010,0 hPa 2,6 l/m 6,6 km/h N-NO 4,1 C 4,9 C 3,7 km/h
20.12.2013 5,9 C 83 % 1023,0 hPa 2,6 l/m 1,5 km/h NO 3,3 C 5,5 C 0,8 km/h
21.12.2013 3,9 C 82 % 1028,4 hPa 0,0 l/m 2,5 km/h SO 1,2 C 3,3 C 1,4 km/h
22.12.2013 10,8 C 74 % 1021,5 hPa 0,5 l/m 16,7 km/h SW 6,3 C 6,0 C 9,3 km/h
23.12.2013 10,0 C 78 % 1016,9 hPa 0,0 l/m 15,2 km/h S-SW 6,3 C 5,4 C 8,4 km/h
24.12.2013 9,2 C 66 % 1000,5 hPa 0,0 l/m 7,4 km/h O-SO 2,3 C 7,6 C 4,1 km/h
25.12.2013 7,6 C 75 % 992,1 hPa 28,5 l/m 5,1 km/h S 3,3 C 6,2 C 2,9 km/h
26.12.2013 4,7 C 77 % 996,1 hPa 14,5 l/m 1,0 km/h O-SO 0,9 C 4,6 C 0,5 km/h
27.12.2013 4,7 C 78 % 1005,7 hPa 0,0 l/m 1,1 km/h O-SO 1,1 C 4,5 C 0,6 km/h
28.12.2013 5,3 C 85 % 1003,7 hPa 19,2 l/m 6,7 km/h O-SO 3,0 C 3,1 C 3,8 km/h
29.12.2013 5,9 C 81 % 1017,6 hPa 0,0 l/m 12,0 km/h SW 2,8 C 1,8 C 6,7 km/h
30.12.2013 2,9 C 81 % 1024,0 hPa 0,0 l/m 0,2 km/h O-SO -0,1 C 2,9 C 0,1 km/h
31.12.2013 2,4 C 80 % 1016,1 hPa 0,0 l/m 0,0 km/h N-NO -1,0 C 2,4 C 0,0 km/h
Min-Datum 04.12.13 17.12.13 25.12.13 11 Tage 01.12.13 - 14.12.13 06.12.13 01.12.13
Min-Zeit 04:19 14:19 05:19 - 01:19 - 03:19 00:19 01:19
Minimum -4,8 C 40 % 989,9 hPa - 0,0 km/h - -6,8 C -9,0 C 0,0 km/h
Max-Datum 24.12.13 02.12.13 10.12.13 25.12.13 05.12.13 - 24.12.13 24.12.13 05.12.13
Max-Zeit 12:19 01:19 22:19 10:19 23:19 - 11:19 13:19 23:19
Maximum 18,6 C 87 % 1032,6 hPa 28,5 l/m 42,8 km/h
SO
- 9,1 C 18,0 C 23,8 km/h
SO
Durchschnitt 3,7 C 79 % 1020,5 hPa #76,1 l/m 3,4 km/h O-SO 0,3 C 2,7 C 1,9 km/h

Durchschnitt Minimum Temp.-0,4 C
Durchschnitt Maximum Temp.10,5 C
www.sexauwetter.de